createdAt,value
2023-03-02T00:01:08.355Z,16.67
2023-03-02T00:03:40.665Z,17.40
2023-03-02T00:06:09.083Z,17.38
2023-03-02T00:08:37.276Z,17.92
2023-03-02T00:11:04.260Z,17.02
2023-03-02T00:13:33.160Z,18.05
2023-03-02T00:16:00.033Z,17.35
2023-03-02T00:18:26.762Z,16.50
2023-03-02T00:20:53.447Z,18.02
2023-03-02T00:23:20.344Z,16.80
2023-03-02T00:25:47.123Z,17.08
2023-03-02T00:28:13.890Z,19.15
2023-03-02T00:30:40.869Z,17.25
2023-03-02T00:33:07.825Z,18.23
2023-03-02T00:35:39.403Z,18.73
2023-03-02T00:38:07.181Z,18.00
2023-03-02T00:40:35.479Z,18.90
2023-03-02T00:43:02.178Z,19.15
2023-03-02T00:45:28.968Z,19.17
2023-03-02T00:47:55.784Z,20.30
2023-03-02T00:50:22.564Z,19.65
2023-03-02T00:52:49.565Z,19.30
2023-03-02T00:55:16.358Z,21.58
2023-03-02T00:57:43.202Z,22.17
2023-03-02T01:00:11.169Z,20.67
2023-03-02T01:02:43.921Z,21.10
2023-03-02T01:05:10.878Z,19.08
2023-03-02T01:07:37.630Z,20.38
2023-03-02T01:10:05.537Z,20.85
2023-03-02T01:12:33.103Z,20.48
2023-03-02T01:15:00.439Z,21.65
2023-03-02T01:17:27.790Z,20.35
2023-03-02T01:19:54.866Z,20.40
2023-03-02T01:22:23.123Z,20.83
2023-03-02T01:24:50.058Z,21.05
2023-03-02T01:27:16.799Z,21.00
2023-03-02T01:29:43.590Z,21.45
2023-03-02T01:32:10.421Z,21.52
2023-03-02T01:34:37.307Z,22.15
2023-03-02T01:37:04.474Z,23.00
2023-03-02T01:39:31.243Z,20.90
2023-03-02T01:41:58.022Z,19.73
2023-03-02T01:44:46.632Z,21.88
2023-03-02T01:47:23.115Z,21.70
2023-03-02T01:50:01.276Z,21.27
2023-03-02T01:52:31.451Z,20.80
2023-03-02T01:55:01.854Z,20.65
2023-03-02T01:57:32.658Z,20.42
2023-03-02T02:00:10.347Z,19.55
2023-03-02T02:02:37.134Z,18.27
2023-03-02T02:05:04.499Z,19.75
2023-03-02T02:07:31.584Z,21.98
2023-03-02T02:09:58.815Z,20.98
2023-03-02T02:12:25.558Z,21.80
2023-03-02T02:14:52.334Z,20.42
2023-03-02T02:17:19.854Z,21.80
2023-03-02T02:20:20.830Z,20.90
2023-03-02T02:23:01.906Z,23.58
2023-03-02T02:25:39.819Z,22.98
2023-03-02T02:28:12.361Z,22.15
2023-03-02T02:30:40.582Z,20.65
2023-03-02T02:33:09.720Z,20.92
2023-03-02T02:35:38.624Z,21.42
2023-03-02T02:38:07.997Z,21.80
2023-03-02T02:40:52.713Z,20.85
2023-03-02T02:43:21.316Z,19.33
2023-03-02T02:45:51.982Z,22.48
2023-03-02T02:48:23.140Z,21.13
2023-03-02T02:50:53.233Z,21.77
2023-03-02T02:53:24.629Z,22.77
2023-03-02T02:55:54.986Z,21.38
2023-03-02T02:58:30.707Z,24.67
2023-03-02T03:00:57.773Z,24.50
2023-03-02T03:03:34.551Z,24.17
2023-03-02T03:06:04.816Z,22.83
2023-03-02T03:08:46.536Z,22.42
2023-03-02T03:11:19.312Z,22.80
2023-03-02T03:13:46.937Z,21.45
2023-03-02T03:16:16.137Z,21.58
2023-03-02T03:18:45.198Z,23.55
2023-03-02T03:21:11.943Z,21.50
2023-03-02T03:23:38.685Z,22.52
2023-03-02T03:26:06.102Z,23.70
2023-03-02T03:28:33.468Z,22.40
2023-03-02T03:31:00.258Z,22.88
2023-03-02T03:33:26.989Z,22.95
2023-03-02T03:35:53.703Z,24.40
2023-03-02T03:38:20.621Z,24.75
2023-03-02T03:40:47.384Z,22.63
2023-03-02T03:43:15.132Z,23.17
2023-03-02T03:45:41.836Z,22.77
2023-03-02T03:48:08.528Z,21.83
2023-03-02T03:50:36.771Z,22.20
2023-03-02T03:53:04.073Z,21.63
2023-03-02T03:55:31.324Z,22.15
2023-03-02T03:57:58.192Z,22.58
2023-03-02T04:00:24.974Z,23.10
2023-03-02T04:02:51.700Z,24.15
2023-03-02T04:05:18.497Z,21.92
2023-03-02T04:07:45.468Z,22.10
2023-03-02T04:10:12.476Z,23.30
2023-03-02T04:12:40.779Z,22.52
2023-03-02T04:15:09.162Z,23.08
2023-03-02T04:17:35.848Z,22.50
2023-03-02T04:20:02.640Z,21.85
2023-03-02T04:22:29.279Z,22.55
2023-03-02T04:24:55.994Z,23.33
2023-03-02T04:27:22.684Z,23.15
2023-03-02T04:29:49.425Z,22.27
2023-03-02T04:32:16.120Z,20.45
2023-03-02T04:34:42.803Z,23.67
2023-03-02T04:37:09.493Z,24.45
2023-03-02T04:39:36.300Z,21.85
2023-03-02T04:42:03.049Z,22.48
2023-03-02T04:44:29.798Z,21.60
2023-03-02T04:46:56.602Z,22.75
2023-03-02T04:49:23.536Z,19.70
2023-03-02T04:51:50.836Z,20.90
2023-03-02T04:54:23.555Z,23.38
2023-03-02T04:56:51.565Z,29.23
2023-03-02T04:59:25.925Z,26.60
2023-03-02T05:01:55.054Z,26.02
2023-03-02T05:04:22.380Z,25.35
2023-03-02T05:06:49.623Z,26.13
2023-03-02T05:09:16.745Z,23.30
2023-03-02T05:11:43.515Z,24.73
2023-03-02T05:14:12.540Z,24.65
2023-03-02T05:16:41.694Z,25.25
2023-03-02T05:19:10.594Z,24.20
2023-03-02T05:21:37.301Z,26.33
2023-03-02T05:24:04.125Z,25.80
2023-03-02T05:26:31.497Z,24.50
2023-03-02T05:28:58.416Z,23.95
2023-03-02T05:31:32.021Z,24.10
2023-03-02T05:33:58.748Z,24.75
2023-03-02T05:36:25.440Z,24.80
2023-03-02T05:38:52.264Z,23.70
2023-03-02T05:41:19.302Z,26.25
2023-03-02T05:43:45.963Z,28.70
2023-03-02T05:46:12.681Z,26.15
2023-03-02T05:48:39.633Z,26.70
2023-03-02T05:51:06.304Z,25.02
2023-03-02T05:53:32.983Z,23.02
2023-03-02T05:55:59.897Z,24.10
2023-03-02T05:58:26.589Z,24.83
2023-03-02T06:00:53.310Z,24.83
2023-03-02T06:03:20.116Z,24.90
2023-03-02T06:05:52.254Z,24.08
2023-03-02T06:08:21.497Z,24.40
2023-03-02T06:10:50.632Z,24.52
2023-03-02T06:13:17.376Z,24.27
2023-03-02T06:15:44.312Z,25.90
2023-03-02T06:18:12.528Z,26.08
2023-03-02T06:20:44.533Z,26.42
2023-03-02T06:23:12.006Z,24.50
2023-03-02T06:25:41.348Z,23.88
2023-03-02T06:28:08.020Z,25.33
2023-03-02T06:30:34.704Z,24.90
2023-03-02T06:33:01.687Z,25.23
2023-03-02T06:35:29.177Z,22.55
2023-03-02T06:37:56.064Z,24.83
2023-03-02T06:40:22.811Z,74.47
2023-03-02T06:42:49.893Z,49.72
2023-03-02T06:45:16.714Z,66.32
2023-03-02T06:47:43.372Z,58.38
2023-03-02T06:50:10.911Z,55.10
2023-03-02T06:52:37.639Z,25.55
2023-03-02T06:55:04.795Z,21.20
2023-03-02T06:57:34.233Z,21.25
2023-03-02T07:00:06.748Z,21.90
2023-03-02T07:02:33.731Z,21.40
2023-03-02T07:05:00.496Z,21.35
2023-03-02T07:07:27.478Z,20.38
2023-03-02T07:09:54.208Z,21.50
2023-03-02T07:12:20.857Z,21.25
2023-03-02T07:14:47.485Z,20.50
2023-03-02T07:17:14.138Z,21.13
2023-03-02T07:19:41.099Z,21.77
2023-03-02T07:22:07.782Z,21.85
2023-03-02T07:24:34.691Z,20.00
2023-03-02T07:27:01.533Z,20.70
2023-03-02T07:29:28.283Z,20.75
2023-03-02T07:32:01.067Z,21.38
2023-03-02T07:34:28.945Z,19.67
2023-03-02T07:36:55.799Z,19.25
2023-03-02T07:39:22.473Z,19.13
2023-03-02T07:41:49.419Z,19.27
2023-03-02T07:44:16.145Z,17.75
2023-03-02T07:46:43.013Z,19.13
2023-03-02T07:49:09.848Z,18.17
2023-03-02T07:51:36.529Z,16.92
2023-03-02T07:54:04.873Z,17.38
2023-03-02T07:56:31.654Z,18.10
2023-03-02T07:58:58.569Z,18.38
2023-03-02T08:01:25.397Z,18.63
2023-03-02T08:03:52.179Z,17.23
2023-03-02T08:06:19.127Z,17.00
2023-03-02T08:08:46.150Z,15.63
2023-03-02T08:11:16.238Z,18.30
2023-03-02T08:13:43.092Z,17.80
2023-03-02T08:16:12.183Z,17.70
2023-03-02T08:18:39.469Z,16.90
2023-03-02T08:21:18.053Z,16.15
2023-03-02T08:23:45.043Z,17.48
2023-03-02T08:26:14.792Z,17.47
2023-03-02T08:28:43.380Z,16.67
2023-03-02T08:31:10.663Z,17.02
2023-03-02T08:33:37.575Z,16.30
2023-03-02T08:36:13.478Z,16.27
2023-03-02T08:38:40.400Z,16.30
2023-03-02T08:41:10.592Z,16.83
2023-03-02T08:43:37.496Z,15.50
2023-03-02T08:46:04.653Z,17.37
2023-03-02T08:48:31.966Z,15.80
2023-03-02T08:51:14.206Z,17.00
2023-03-02T08:53:46.767Z,16.83
2023-03-02T08:56:22.571Z,15.50
2023-03-02T08:58:50.641Z,15.10
2023-03-02T09:01:20.103Z,15.93
2023-03-02T09:03:46.812Z,15.60
2023-03-02T09:06:13.776Z,15.57
2023-03-02T09:08:40.769Z,15.17
2023-03-02T09:11:08.098Z,16.03
2023-03-02T09:13:34.871Z,16.47
2023-03-02T09:16:01.857Z,14.27
2023-03-02T09:18:29.651Z,15.10
2023-03-02T09:20:56.857Z,16.30
2023-03-02T09:23:24.305Z,15.80
2023-03-02T09:25:51.264Z,13.90
2023-03-02T09:28:18.781Z,14.93
2023-03-02T09:30:53.846Z,13.97
2023-03-02T09:33:21.239Z,13.37
2023-03-02T09:35:48.171Z,13.47
2023-03-02T09:38:18.442Z,14.07
2023-03-02T09:40:58.687Z,12.83
2023-03-02T09:43:53.037Z,13.37
2023-03-02T09:46:47.846Z,13.40
2023-03-02T09:49:33.295Z,14.10
2023-03-02T09:52:29.062Z,12.10
2023-03-02T09:54:57.710Z,12.77
2023-03-02T09:57:31.833Z,13.03
2023-03-02T10:00:19.579Z,14.23
2023-03-02T10:02:50.261Z,12.90
2023-03-02T10:05:33.478Z,13.70
2023-03-02T10:08:00.833Z,12.43
2023-03-02T10:10:42.857Z,12.63
2023-03-02T10:13:21.441Z,12.90
2023-03-02T10:16:26.623Z,12.10
2023-03-02T10:19:24.956Z,12.73
2023-03-02T10:22:09.226Z,10.70
2023-03-02T10:25:11.482Z,11.33
2023-03-02T10:27:53.859Z,11.27
2023-03-02T10:30:28.412Z,11.37
2023-03-02T10:32:59.499Z,10.93
2023-03-02T10:35:28.858Z,11.20
2023-03-02T10:38:01.874Z,11.57
2023-03-02T10:40:34.459Z,10.57
2023-03-02T10:43:01.812Z,11.80
2023-03-02T10:45:31.628Z,10.70
2023-03-02T10:48:01.509Z,11.63
2023-03-02T10:50:30.557Z,11.90
2023-03-02T10:53:00.750Z,11.40
2023-03-02T10:55:28.945Z,11.90
2023-03-02T10:58:20.064Z,10.67
2023-03-02T11:01:16.378Z,12.00
2023-03-02T11:03:43.306Z,11.80
2023-03-02T11:06:22.505Z,11.73
2023-03-02T11:09:06.885Z,9.90
2023-03-02T11:11:35.535Z,10.67
2023-03-02T11:14:14.367Z,10.40
2023-03-02T11:16:41.135Z,11.00
2023-03-02T11:19:13.789Z,10.33
2023-03-02T11:22:07.843Z,11.53
2023-03-02T11:24:41.048Z,10.17
2023-03-02T11:27:20.189Z,10.70
2023-03-02T11:29:59.437Z,10.67
2023-03-02T11:33:01.437Z,11.07
2023-03-02T11:35:43.409Z,11.37
2023-03-02T11:38:22.054Z,10.77
2023-03-02T11:40:56.556Z,11.50
2023-03-02T11:43:23.321Z,11.67
2023-03-02T11:46:10.843Z,10.50
2023-03-02T11:48:43.250Z,12.03
2023-03-02T11:51:24.541Z,11.30
2023-03-02T11:54:04.611Z,11.20
2023-03-02T11:56:35.237Z,11.67
2023-03-02T11:59:21.023Z,10.50
2023-03-02T12:01:52.874Z,11.80
2023-03-02T12:04:35.963Z,9.93
2023-03-02T12:07:16.649Z,11.87
2023-03-02T12:09:43.582Z,11.17
2023-03-02T12:12:19.414Z,11.03
2023-03-02T12:14:46.419Z,11.27
2023-03-02T12:17:32.227Z,11.40
2023-03-02T12:20:08.075Z,10.90
2023-03-02T12:22:36.000Z,10.20
2023-03-02T12:25:21.265Z,10.87
2023-03-02T12:27:51.478Z,11.30
2023-03-02T12:30:25.000Z,10.93
2023-03-02T12:33:15.348Z,11.30
2023-03-02T12:35:42.483Z,10.10
2023-03-02T12:38:32.468Z,10.67
2023-03-02T12:41:13.512Z,9.90
2023-03-02T12:44:07.787Z,10.57
2023-03-02T12:46:37.403Z,10.77
2023-03-02T12:49:27.320Z,11.67
2023-03-02T12:51:58.605Z,10.20
2023-03-02T12:54:31.510Z,10.60
2023-03-02T12:57:08.907Z,11.23
2023-03-02T12:59:36.808Z,10.80
2023-03-02T13:02:25.027Z,11.90
2023-03-02T13:05:04.411Z,10.90
2023-03-02T13:07:44.083Z,10.80
2023-03-02T13:10:28.373Z,10.50
2023-03-02T13:12:55.139Z,10.60
2023-03-02T13:15:21.828Z,10.77
2023-03-02T13:17:57.062Z,11.10
2023-03-02T13:20:27.862Z,11.37
2023-03-02T13:22:55.265Z,10.93
2023-03-02T13:25:28.897Z,11.50
2023-03-02T13:28:00.575Z,10.43
2023-03-02T13:30:31.050Z,11.67
2023-03-02T13:33:02.710Z,9.97
2023-03-02T13:35:35.832Z,11.37
2023-03-02T13:38:16.038Z,12.23
2023-03-02T13:40:48.486Z,11.80
2023-03-02T13:43:30.727Z,10.80
2023-03-02T13:46:00.163Z,11.50
2023-03-02T13:48:30.244Z,11.10
2023-03-02T13:51:00.620Z,10.17
2023-03-02T13:53:30.193Z,10.30
2023-03-02T13:56:00.203Z,10.53
2023-03-02T13:58:29.338Z,10.03
2023-03-02T14:00:56.395Z,11.00
2023-03-02T14:03:29.766Z,10.97
2023-03-02T14:05:58.224Z,10.40
2023-03-02T14:08:25.266Z,11.10
2023-03-02T14:10:55.153Z,11.03
2023-03-02T14:13:30.479Z,10.97
2023-03-02T14:15:57.494Z,10.30
2023-03-02T14:18:26.625Z,10.50
2023-03-02T14:20:53.468Z,10.20
2023-03-02T14:23:20.180Z,10.73
2023-03-02T14:25:47.048Z,9.47
2023-03-02T14:28:36.283Z,10.67
2023-03-02T14:31:03.092Z,9.80
2023-03-02T14:33:29.804Z,10.03
2023-03-02T14:35:58.039Z,10.23
2023-03-02T14:38:27.006Z,13.03
2023-03-02T14:40:54.058Z,12.07
2023-03-02T14:43:21.363Z,10.70
2023-03-02T14:45:48.088Z,9.80
2023-03-02T14:48:14.806Z,9.83
2023-03-02T14:50:45.664Z,10.50
2023-03-02T14:53:27.970Z,9.90
2023-03-02T14:55:54.874Z,10.43
2023-03-02T14:58:31.350Z,10.23
2023-03-02T15:00:58.414Z,10.57
2023-03-02T15:03:29.242Z,10.43
2023-03-02T15:06:01.362Z,10.43
2023-03-02T15:08:29.921Z,9.87
2023-03-02T15:10:56.652Z,10.10
2023-03-02T15:13:23.352Z,9.77
2023-03-02T15:15:50.212Z,9.17
2023-03-02T15:18:19.577Z,10.37
2023-03-02T15:20:46.628Z,8.70
2023-03-02T15:23:13.474Z,9.70
2023-03-02T15:25:40.679Z,9.23
2023-03-02T15:28:07.334Z,10.00
2023-03-02T15:30:33.998Z,8.83
2023-03-02T15:33:00.725Z,10.30
2023-03-02T15:35:29.104Z,9.57
2023-03-02T15:37:58.199Z,9.80
2023-03-02T15:40:25.446Z,10.27
2023-03-02T15:42:53.121Z,10.50
2023-03-02T15:45:20.077Z,11.80
2023-03-02T15:47:47.052Z,15.40
2023-03-02T15:50:13.801Z,19.30
2023-03-02T15:52:41.539Z,18.60
2023-03-02T15:55:08.971Z,16.70
2023-03-02T15:57:39.382Z,18.37
2023-03-02T16:00:07.135Z,18.40
2023-03-02T16:02:34.249Z,19.60
2023-03-02T16:05:01.028Z,20.27
2023-03-02T16:07:27.875Z,19.43
2023-03-02T16:09:54.574Z,19.67
2023-03-02T16:12:23.336Z,18.53
2023-03-02T16:14:50.347Z,19.57
2023-03-02T16:17:20.549Z,19.50
2023-03-02T16:19:47.333Z,19.27
2023-03-02T16:22:14.468Z,20.93
2023-03-02T16:24:41.985Z,21.27
2023-03-02T16:27:08.948Z,21.20
2023-03-02T16:29:35.801Z,19.10
2023-03-02T16:32:02.716Z,19.70
2023-03-02T16:34:29.540Z,19.90
2023-03-02T16:36:56.222Z,21.13
2023-03-02T16:39:23.078Z,20.23
2023-03-02T16:41:51.297Z,20.93
2023-03-02T16:44:18.711Z,20.43
2023-03-02T16:46:45.824Z,21.50
2023-03-02T16:49:13.803Z,21.77
2023-03-02T16:51:41.157Z,22.07
2023-03-02T16:54:07.855Z,21.70
2023-03-02T16:56:34.598Z,23.20
2023-03-02T16:59:01.322Z,24.37
2023-03-02T17:01:28.299Z,23.77
2023-03-02T17:03:56.210Z,23.67
2023-03-02T17:06:24.010Z,24.30
2023-03-02T17:08:51.280Z,25.03
2023-03-02T17:11:19.181Z,23.77
2023-03-02T17:13:46.166Z,24.47
2023-03-02T17:16:13.437Z,23.77
2023-03-02T17:18:41.096Z,25.37
2023-03-02T17:21:08.423Z,25.50
2023-03-02T17:23:36.774Z,30.40
2023-03-02T17:26:03.723Z,34.93
2023-03-02T17:28:30.765Z,39.73
2023-03-02T17:30:57.544Z,32.07
2023-03-02T17:33:24.357Z,53.13
2023-03-02T17:35:52.054Z,27.23
2023-03-02T17:38:19.021Z,27.07
2023-03-02T17:40:45.873Z,25.67
2023-03-02T17:43:12.755Z,26.33
2023-03-02T17:45:39.879Z,27.55
2023-03-02T17:48:06.890Z,28.05
2023-03-02T17:50:33.786Z,26.30
2023-03-02T17:53:00.493Z,27.40
2023-03-02T17:55:27.249Z,27.15
2023-03-02T17:57:54.155Z,27.95
2023-03-02T18:00:23.189Z,25.67
2023-03-02T18:02:50.052Z,29.38
2023-03-02T18:05:17.000Z,27.55
2023-03-02T18:07:43.884Z,26.23
2023-03-02T18:10:11.730Z,28.73
2023-03-02T18:12:38.442Z,28.30
2023-03-02T18:15:05.890Z,26.00
2023-03-02T18:17:32.714Z,27.80
2023-03-02T18:19:59.670Z,28.58
2023-03-02T18:22:26.379Z,28.65
2023-03-02T18:24:53.142Z,28.95
2023-03-02T18:27:20.230Z,27.73
2023-03-02T18:29:46.949Z,28.27
2023-03-02T18:32:14.116Z,29.50
2023-03-02T18:34:40.966Z,29.60
2023-03-02T18:37:07.811Z,29.02
2023-03-02T18:39:34.967Z,28.80
2023-03-02T18:42:01.649Z,28.20
2023-03-02T18:44:28.438Z,28.77
2023-03-02T18:46:56.041Z,31.27
2023-03-02T18:49:23.521Z,29.73
2023-03-02T18:51:50.661Z,30.27
2023-03-02T18:54:17.414Z,29.13
2023-03-02T18:56:44.605Z,30.45
2023-03-02T18:59:12.126Z,27.15
2023-03-02T19:01:38.987Z,27.52
2023-03-02T19:04:06.305Z,29.90
2023-03-02T19:06:33.735Z,29.75
2023-03-02T19:09:00.622Z,26.95
2023-03-02T19:11:27.386Z,28.65
2023-03-02T19:13:54.151Z,30.60
2023-03-02T19:16:20.995Z,29.77
2023-03-02T19:18:48.627Z,27.70
2023-03-02T19:21:16.170Z,30.15
2023-03-02T19:23:43.783Z,28.85
2023-03-02T19:26:11.570Z,30.67
2023-03-02T19:28:39.857Z,27.50
2023-03-02T19:31:09.272Z,30.67
2023-03-02T19:33:37.217Z,34.92
2023-03-02T19:36:04.840Z,29.45
2023-03-02T19:38:31.544Z,28.15
2023-03-02T19:41:00.118Z,28.55
2023-03-02T19:43:27.751Z,28.02
2023-03-02T19:45:54.590Z,28.08
2023-03-02T19:48:21.529Z,27.77
2023-03-02T19:50:48.503Z,28.75
2023-03-02T19:53:17.049Z,28.52
2023-03-02T19:55:44.402Z,29.73
2023-03-02T19:58:17.151Z,29.60
2023-03-02T20:00:45.446Z,28.25
2023-03-02T20:03:13.064Z,28.20
2023-03-02T20:05:39.955Z,28.65
2023-03-02T20:08:07.441Z,28.40
2023-03-02T20:10:46.515Z,28.30
2023-03-02T20:13:13.199Z,32.78
2023-03-02T20:15:42.659Z,29.00
2023-03-02T20:18:15.711Z,28.80
2023-03-02T20:20:45.168Z,29.15
2023-03-02T20:23:12.450Z,28.95
2023-03-02T20:25:39.592Z,28.55
2023-03-02T20:28:11.768Z,26.27
2023-03-02T20:30:44.077Z,28.13
2023-03-02T20:33:12.359Z,26.95
2023-03-02T20:35:42.515Z,26.65
2023-03-02T20:38:14.370Z,29.30
2023-03-02T20:40:41.207Z,30.08
2023-03-02T20:43:07.970Z,30.30
2023-03-02T20:45:35.646Z,28.35
2023-03-02T20:48:03.101Z,27.58
2023-03-02T20:50:33.018Z,27.10
2023-03-02T20:53:00.039Z,28.55
2023-03-02T20:55:27.127Z,28.17
2023-03-02T20:57:56.957Z,26.50
2023-03-02T21:00:27.378Z,28.00
2023-03-02T21:02:54.811Z,27.55
2023-03-02T21:05:21.610Z,29.13
2023-03-02T21:07:51.596Z,39.90
2023-03-02T21:10:21.817Z,37.88
2023-03-02T21:12:49.048Z,36.65
2023-03-02T21:15:16.906Z,35.20
2023-03-02T21:17:43.588Z,31.30
2023-03-02T21:20:12.174Z,32.25
2023-03-02T21:22:39.030Z,32.65
2023-03-02T21:25:08.830Z,37.80
2023-03-02T21:27:37.156Z,31.33
2023-03-02T21:30:08.709Z,28.85
2023-03-02T21:32:35.398Z,28.48
2023-03-02T21:35:02.525Z,30.23
2023-03-02T21:37:29.350Z,30.00
2023-03-02T21:39:56.132Z,28.65
2023-03-02T21:42:22.896Z,28.80
2023-03-02T21:44:49.629Z,28.52
2023-03-02T21:47:16.413Z,28.25
2023-03-02T21:49:43.205Z,31.60
2023-03-02T21:52:10.300Z,30.08
2023-03-02T21:54:37.007Z,32.08
2023-03-02T21:57:03.799Z,31.77
2023-03-02T21:59:30.824Z,28.23
2023-03-02T22:01:57.590Z,28.40
2023-03-02T22:04:24.319Z,27.02
2023-03-02T22:06:51.114Z,29.77
2023-03-02T22:09:17.781Z,29.08
2023-03-02T22:11:45.163Z,29.52
2023-03-02T22:14:17.479Z,30.52
2023-03-02T22:16:47.772Z,29.30
2023-03-02T22:19:23.625Z,31.05
2023-03-02T22:21:51.621Z,27.70
2023-03-02T22:24:28.728Z,28.30
2023-03-02T22:26:58.567Z,27.65
2023-03-02T22:29:33.641Z,28.50
2023-03-02T22:32:15.316Z,27.88
2023-03-02T22:34:44.322Z,27.92
2023-03-02T22:37:13.879Z,27.42
2023-03-02T22:39:42.277Z,28.05
2023-03-02T22:42:15.997Z,27.13
2023-03-02T22:44:44.182Z,26.52
2023-03-02T22:47:20.363Z,28.05
2023-03-02T22:49:52.951Z,25.38
2023-03-02T22:52:25.079Z,28.45
2023-03-02T22:54:51.903Z,28.00
2023-03-02T22:57:24.756Z,26.75
2023-03-02T22:59:51.439Z,27.10
2023-03-02T23:02:22.293Z,28.30
2023-03-02T23:04:50.149Z,27.65
2023-03-02T23:07:19.835Z,27.67
2023-03-02T23:09:47.436Z,27.95
2023-03-02T23:12:22.496Z,27.65
2023-03-02T23:14:49.290Z,25.73
2023-03-02T23:17:34.459Z,26.30
2023-03-02T23:20:01.999Z,25.10
2023-03-02T23:22:30.035Z,27.17
2023-03-02T23:24:57.053Z,26.65
2023-03-02T23:27:27.751Z,25.60
2023-03-02T23:29:54.422Z,25.48
2023-03-02T23:32:21.337Z,26.52
2023-03-02T23:34:48.150Z,27.10
2023-03-02T23:37:14.783Z,26.65
2023-03-02T23:39:41.446Z,25.65
2023-03-02T23:42:08.641Z,26.95
2023-03-02T23:44:35.320Z,27.10
2023-03-02T23:47:01.973Z,26.15
2023-03-02T23:49:28.829Z,26.33
2023-03-02T23:51:55.588Z,26.17
2023-03-02T23:54:22.257Z,27.38
2023-03-02T23:56:48.947Z,27.80
2023-03-02T23:59:15.667Z,25.70
